Time;durP1;ratioP1;P1;durP2;ratioP2;P2;SDS_P1;SDS_P2;PMS_P1;PMS_P2;Temp;Humidity;BMP_temperature;BMP_pressure;BME280_temperature;BME280_humidity;BME280_pressure;Samples;Min_cycle;Max_cycle;Signal;HPM_P1;HPM_P2
2023/12/18 00:00:27;;;;;;;7.20;3.28;;;22.80;99.90;;;;;;4994148;28;20030;-41
2023/12/18 00:02:52;;;;;;;5.32;3.58;;;22.70;99.90;;;;;;4990833;28;20062;-41
2023/12/18 00:05:18;;;;;;;7.50;3.35;;;22.70;99.90;;;;;;4996940;28;20054;-42
2023/12/18 00:07:44;;;;;;;7.43;3.58;;;22.70;99.90;;;;;;5000320;28;20070;-42
2023/12/18 00:10:10;;;;;;;6.82;2.78;;;22.70;99.90;;;;;;4978678;28;20018;-42
2023/12/18 00:12:36;;;;;;;6.10;3.55;;;22.70;99.90;;;;;;4981264;28;20375;-42
2023/12/18 00:15:02;;;;;;;7.72;3.42;;;22.70;99.90;;;;;;4994943;28;20474;-43
2023/12/18 00:17:28;;;;;;;14.30;4.32;;;22.70;99.90;;;;;;4988730;28;20503;-43
2023/12/18 00:19:54;;;;;;;6.03;3.40;;;22.70;99.90;;;;;;4993502;28;20069;-41
2023/12/18 00:22:19;;;;;;;6.75;2.88;;;22.60;99.90;;;;;;4985148;28;20062;-42
2023/12/18 00:24:45;;;;;;;6.82;3.35;;;22.70;99.90;;;;;;4979324;28;20371;-41
2023/12/18 00:27:11;;;;;;;7.25;3.30;;;22.60;99.90;;;;;;4987970;28;20471;-42
2023/12/18 00:29:39;;;;;;;4.57;2.80;;;22.60;99.90;;;;;;4979612;28;20022;-43
2023/12/18 00:32:06;;;;;;;7.70;3.65;;;22.60;99.90;;;;;;4987892;28;20025;-43
2023/12/18 00:34:31;;;;;;;6.50;2.97;;;22.60;99.90;;;;;;4991121;28;20502;-43
2023/12/18 00:36:57;;;;;;;9.63;2.90;;;22.60;99.90;;;;;;5008335;28;20026;-43
2023/12/18 00:39:23;;;;;;;5.22;2.90;;;22.60;99.90;;;;;;4993208;28;20029;-43
2023/12/18 00:41:49;;;;;;;5.22;2.85;;;22.50;99.90;;;;;;4987973;28;20101;-43
2023/12/18 00:44:14;;;;;;;7.75;3.35;;;22.50;99.90;;;;;;4990654;28;20039;-43
2023/12/18 00:46:40;;;;;;;5.18;3.28;;;22.60;99.90;;;;;;4983744;28;20019;-43
2023/12/18 00:49:06;;;;;;;4.18;2.88;;;22.50;99.90;;;;;;4988259;28;20073;-43
2023/12/18 00:51:32;;;;;;;5.15;3.17;;;22.50;99.90;;;;;;4991081;28;20030;-41
2023/12/18 00:53:57;;;;;;;3.95;2.78;;;22.50;99.90;;;;;;4994688;28;20105;-43
2023/12/18 00:56:23;;;;;;;9.88;3.45;;;22.50;99.90;;;;;;4994539;28;20490;-42
2023/12/18 00:58:49;;;;;;;6.38;2.97;;;22.50;99.90;;;;;;4994346;28;20049;-42
2023/12/18 01:01:15;;;;;;;5.78;3.53;;;22.50;99.90;;;;;;4992598;28;20050;-42
2023/12/18 01:03:41;;;;;;;5.85;3.17;;;22.50;99.90;;;;;;4994267;28;20039;-42
2023/12/18 01:06:06;;;;;;;4.40;3.05;;;22.40;99.90;;;;;;4994038;28;20022;-44
2023/12/18 01:08:32;;;;;;;6.80;3.15;;;22.40;99.90;;;;;;4993948;28;20074;-42
2023/12/18 01:10:58;;;;;;;9.20;3.50;;;22.40;99.90;;;;;;4992360;28;20018;-42
2023/12/18 01:13:24;;;;;;;5.15;3.20;;;22.40;99.90;;;;;;4985716;28;20027;-42
2023/12/18 01:15:50;;;;;;;9.63;3.80;;;22.40;99.90;;;;;;4988888;28;20050;-42
2023/12/18 01:18:16;;;;;;;7.45;3.15;;;22.40;99.90;;;;;;4994514;28;20045;-42
2023/12/18 01:20:42;;;;;;;6.95;3.40;;;22.40;99.90;;;;;;4984706;28;20522;-42
2023/12/18 01:23:07;;;;;;;4.72;3.50;;;22.40;99.90;;;;;;4993556;28;20502;-42
2023/12/18 01:25:33;;;;;;;6.65;3.47;;;22.40;99.90;;;;;;4994106;28;20029;-42
2023/12/18 01:27:59;;;;;;;8.95;3.47;;;22.40;99.90;;;;;;5009054;28;20076;-42
2023/12/18 01:30:26;;;;;;;4.75;2.80;;;22.30;99.90;;;;;;4984532;28;20018;-43
2023/12/18 01:32:51;;;;;;;12.20;3.10;;;22.30;99.90;;;;;;4993671;28;20018;-42
2023/12/18 01:35:17;;;;;;;5.93;3.60;;;22.30;99.90;;;;;;4993996;28;20081;-42
2023/12/18 01:37:43;;;;;;;8.40;3.70;;;22.30;99.90;;;;;;4993989;28;20014;-43
2023/12/18 01:40:09;;;;;;;6.75;3.50;;;22.30;99.90;;;;;;4992918;28;20062;-43
2023/12/18 01:42:35;;;;;;;7.18;3.47;;;22.20;99.90;;;;;;4992743;28;20046;-43
2023/12/18 01:45:01;;;;;;;7.43;3.60;;;22.20;99.90;;;;;;4993653;28;20392;-43
2023/12/18 01:47:27;;;;;;;6.78;3.50;;;22.20;99.90;;;;;;4990320;28;20125;-43
2023/12/18 01:49:52;;;;;;;8.18;3.20;;;22.20;99.90;;;;;;4992770;28;20109;-44
2023/12/18 01:52:19;;;;;;;6.03;3.28;;;22.20;99.90;;;;;;4974370;28;20112;-43
2023/12/18 01:54:45;;;;;;;7.07;3.63;;;22.20;99.90;;;;;;4982704;28;20026;-43
2023/12/18 01:57:13;;;;;;;8.70;3.78;;;22.20;99.90;;;;;;4991209;28;20057;-42
2023/12/18 01:59:39;;;;;;;10.00;4.18;;;22.10;99.90;;;;;;4987672;28;20042;-43
2023/12/18 02:02:06;;;;;;;7.57;3.63;;;22.10;99.90;;;;;;5002598;28;20181;-43
2023/12/18 02:04:32;;;;;;;4.40;3.03;;;22.10;99.90;;;;;;4991620;28;20034;-42
2023/12/18 02:07:00;;;;;;;7.18;3.35;;;22.10;99.90;;;;;;4992706;28;20552;-42
2023/12/18 02:09:26;;;;;;;5.78;3.63;;;22.10;99.90;;;;;;4993368;28;20026;-44
2023/12/18 02:11:52;;;;;;;5.78;3.58;;;22.00;99.90;;;;;;4993054;28;20022;-43
2023/12/18 02:14:18;;;;;;;9.60;3.13;;;22.00;99.90;;;;;;4992994;28;20045;-42
2023/12/18 02:16:44;;;;;;;8.68;3.10;;;22.00;99.90;;;;;;4993013;28;20053;-43
2023/12/18 02:19:27;;;;;;;7.07;3.65;;;22.00;99.90;;;;;;4993268;28;20862;-43
2023/12/18 02:21:57;;;;;;;7.22;2.85;;;22.00;99.90;;;;;;4993106;28;20015;-44
2023/12/18 02:24:23;;;;;;;9.32;3.50;;;22.00;99.90;;;;;;4993034;28;20034;-43
2023/12/18 02:26:49;;;;;;;5.68;3.75;;;21.90;99.90;;;;;;4993272;28;20029;-43
2023/12/18 02:29:15;;;;;;;7.90;3.42;;;21.90;99.90;;;;;;4992874;28;20022;-45
2023/12/18 02:31:42;;;;;;;9.93;3.15;;;21.90;99.90;;;;;;4993012;28;20042;-43
2023/12/18 02:34:08;;;;;;;9.10;2.92;;;21.90;99.90;;;;;;4993111;28;20026;-44
2023/12/18 02:36:34;;;;;;;5.65;3.03;;;21.90;99.90;;;;;;4993046;28;20382;-42
2023/12/18 02:39:00;;;;;;;8.43;3.63;;;21.80;99.90;;;;;;4992995;28;20022;-42
2023/12/18 02:41:26;;;;;;;9.98;3.38;;;21.80;99.90;;;;;;4992958;28;20061;-43
2023/12/18 02:43:52;;;;;;;6.10;3.88;;;21.80;99.90;;;;;;4992877;28;20061;-42
2023/12/18 02:46:17;;;;;;;5.35;3.20;;;21.80;99.90;;;;;;4992974;28;20475;-42
2023/12/18 02:48:43;;;;;;;10.30;3.00;;;21.70;99.90;;;;;;4992757;28;20080;-42
2023/12/18 02:51:09;;;;;;;8.27;3.50;;;21.70;99.90;;;;;;4992907;28;20022;-42
2023/12/18 02:53:35;;;;;;;6.85;3.33;;;21.70;99.90;;;;;;4992872;28;20518;-42
2023/12/18 02:56:01;;;;;;;8.10;3.83;;;21.70;99.90;;;;;;4992852;28;20097;-42
2023/12/18 02:58:27;;;;;;;8.43;3.33;;;21.70;99.90;;;;;;4991133;28;20462;-43
2023/12/18 03:00:53;;;;;;;6.18;3.53;;;21.70;99.90;;;;;;4992371;28;20075;-42
2023/12/18 03:03:19;;;;;;;6.22;3.33;;;21.70;99.90;;;;;;4992635;28;20038;-43
2023/12/18 03:05:45;;;;;;;7.07;2.80;;;21.60;99.90;;;;;;4992402;28;20023;-43
2023/12/18 03:08:11;;;;;;;6.15;3.08;;;21.60;99.90;;;;;;4992513;28;20033;-42
2023/12/18 03:10:37;;;;;;;4.95;3.40;;;21.60;99.90;;;;;;4991187;28;20061;-42
2023/12/18 03:13:02;;;;;;;5.22;2.60;;;21.60;99.90;;;;;;4992619;28;20027;-43
2023/12/18 03:15:29;;;;;;;5.43;3.22;;;21.60;99.90;;;;;;4991321;28;20502;-42
2023/12/18 03:17:55;;;;;;;5.25;3.03;;;21.60;99.90;;;;;;4992278;28;20023;-43
2023/12/18 03:20:21;;;;;;;3.08;2.40;;;21.50;99.90;;;;;;4992464;28;20062;-43
2023/12/18 03:22:46;;;;;;;3.95;2.78;;;21.50;99.90;;;;;;4992130;28;20478;-42
2023/12/18 03:25:12;;;;;;;5.93;2.67;;;21.50;99.90;;;;;;4991844;28;20402;-42
2023/12/18 03:27:38;;;;;;;6.15;3.05;;;21.50;99.90;;;;;;4996323;28;20430;-42
2023/12/18 03:30:05;;;;;;;5.47;2.63;;;21.50;99.90;;;;;;4996223;28;20105;-42
2023/12/18 03:32:31;;;;;;;5.25;2.55;;;21.50;99.90;;;;;;4994817;28;20034;-42
2023/12/18 03:34:56;;;;;;;8.55;2.83;;;21.40;99.90;;;;;;4994861;28;20105;-42
2023/12/18 03:37:22;;;;;;;5.13;3.40;;;21.40;99.90;;;;;;4996421;28;20073;-42
2023/12/18 03:39:48;;;;;;;5.10;3.20;;;21.40;99.90;;;;;;4996279;28;20479;-42
2023/12/18 03:42:14;;;;;;;6.40;3.08;;;21.40;99.90;;;;;;4996083;28;20057;-42
2023/12/18 03:44:42;;;;;;;4.15;2.53;;;21.40;99.90;;;;;;4996264;28;20039;-42
2023/12/18 03:47:08;;;;;;;6.18;3.05;;;21.40;99.90;;;;;;4995197;28;20015;-43
2023/12/18 03:49:33;;;;;;;5.53;2.70;;;21.40;99.90;;;;;;4996084;28;20364;-43
2023/12/18 03:51:59;;;;;;;6.30;2.85;;;21.40;99.90;;;;;;4996022;28;20102;-43
2023/12/18 03:54:25;;;;;;;9.43;2.97;;;21.30;99.90;;;;;;4996038;28;20037;-42
2023/12/18 03:56:51;;;;;;;5.97;3.17;;;21.30;99.90;;;;;;4995962;28;20023;-43
2023/12/18 03:59:16;;;;;;;4.18;2.90;;;21.40;99.90;;;;;;4995807;28;20022;-42
2023/12/18 04:01:42;;;;;;;8.65;2.90;;;21.30;99.90;;;;;;4996248;28;20061;-43
2023/12/18 04:04:08;;;;;;;5.40;2.83;;;21.30;99.90;;;;;;4995975;28;20519;-43
2023/12/18 04:06:35;;;;;;;5.30;2.72;;;21.30;99.90;;;;;;4995882;28;20027;-43
2023/12/18 04:09:01;;;;;;;4.85;2.58;;;21.30;99.90;;;;;;4995633;28;20026;-42
2023/12/18 04:11:26;;;;;;;5.70;2.60;;;21.30;99.90;;;;;;4995760;28;20085;-42
2023/12/18 04:13:52;;;;;;;4.30;2.35;;;21.30;99.90;;;;;;4995648;28;20022;-43
2023/12/18 04:16:18;;;;;;;7.22;2.88;;;21.30;99.90;;;;;;4995535;28;20014;-42
2023/12/18 04:18:44;;;;;;;5.65;2.30;;;21.30;99.90;;;;;;4995541;28;20030;-43
2023/12/18 04:21:10;;;;;;;7.50;2.22;;;21.30;99.90;;;;;;4978579;28;20053;-43
2023/12/18 04:23:35;;;;;;;3.88;2.58;;;21.20;99.90;;;;;;4995367;28;20031;-43
2023/12/18 04:26:01;;;;;;;9.95;2.58;;;21.20;99.90;;;;;;4980417;28;20033;-43
2023/12/18 04:28:27;;;;;;;5.30;2.42;;;21.20;99.90;;;;;;4995441;28;20042;-43
2023/12/18 04:30:53;;;;;;;4.82;2.00;;;21.20;99.90;;;;;;4995356;28;20057;-42
2023/12/18 04:33:18;;;;;;;5.93;2.30;;;21.20;99.90;;;;;;4991673;28;20030;-42
2023/12/18 04:35:44;;;;;;;7.22;2.67;;;21.20;99.90;;;;;;4987353;28;20463;-42
2023/12/18 04:38:10;;;;;;;3.88;2.22;;;21.20;99.90;;;;;;4958757;28;20089;-42
2023/12/18 04:40:36;;;;;;;5.45;2.20;;;21.20;99.90;;;;;;4984456;28;20076;-42
2023/12/18 04:43:02;;;;;;;5.72;1.88;;;21.20;99.90;;;;;;4992808;28;20034;-42
2023/12/18 04:45:27;;;;;;;4.22;2.20;;;21.10;99.90;;;;;;4992583;28;20029;-42
2023/12/18 04:47:53;;;;;;;5.85;2.20;;;21.10;99.90;;;;;;4993891;28;20053;-46
2023/12/18 04:50:19;;;;;;;7.15;2.55;;;21.10;99.90;;;;;;4994099;28;20022;-43
2023/12/18 04:52:45;;;;;;;4.40;2.20;;;21.10;99.90;;;;;;4994692;28;20019;-44
2023/12/18 04:55:10;;;;;;;7.95;2.58;;;21.10;99.90;;;;;;4995023;28;20031;-43
2023/12/18 04:57:36;;;;;;;4.78;2.35;;;21.10;99.90;;;;;;4994426;28;20482;-43
2023/12/18 05:00:03;;;;;;;3.85;1.90;;;21.10;99.90;;;;;;4995028;28;20027;-43
2023/12/18 05:02:28;;;;;;;7.28;2.47;;;21.10;99.90;;;;;;4994805;28;20521;-43
2023/12/18 05:04:54;;;;;;;3.05;1.88;;;21.10;99.90;;;;;;4994721;28;20030;-42
2023/12/18 05:07:20;;;;;;;3.80;2.05;;;21.00;99.90;;;;;;4993246;28;20022;-42
2023/12/18 05:09:46;;;;;;;5.22;1.83;;;21.00;99.90;;;;;;4990174;28;20027;-42
2023/12/18 05:12:12;;;;;;;2.90;1.75;;;21.00;99.90;;;;;;4989205;28;20050;-42
2023/12/18 05:14:37;;;;;;;3.70;1.85;;;21.00;99.90;;;;;;4994398;28;20108;-43
2023/12/18 05:17:03;;;;;;;3.78;2.17;;;21.00;99.90;;;;;;4994451;28;20030;-42
2023/12/18 05:19:29;;;;;;;7.90;2.38;;;21.00;99.90;;;;;;4994284;28;20029;-43
2023/12/18 05:21:55;;;;;;;4.07;2.10;;;21.00;99.90;;;;;;4994280;28;20110;-42
2023/12/18 05:24:21;;;;;;;3.55;1.88;;;21.00;99.90;;;;;;4992898;28;20482;-42
2023/12/18 05:26:46;;;;;;;5.18;1.63;;;21.00;99.90;;;;;;4994551;28;20375;-42
2023/12/18 05:29:12;;;;;;;2.80;2.00;;;21.00;99.90;;;;;;4994255;28;20026;-42
2023/12/18 05:31:38;;;;;;;3.92;1.83;;;21.00;99.90;;;;;;4993904;28;20057;-42
2023/12/18 05:34:04;;;;;;;2.38;1.50;;;21.00;99.90;;;;;;4994152;28;20023;-43
2023/12/18 05:36:30;;;;;;;4.07;2.10;;;20.90;99.90;;;;;;4994137;28;20431;-42
2023/12/18 05:38:56;;;;;;;5.38;2.00;;;20.90;99.90;;;;;;4993942;28;20105;-42
2023/12/18 05:41:22;;;;;;;3.10;1.60;;;20.90;99.90;;;;;;4994183;28;20130;-43
2023/12/18 05:43:47;;;;;;;4.10;1.83;;;20.90;99.90;;;;;;4993794;28;20054;-42
2023/12/18 05:46:13;;;;;;;2.92;1.92;;;20.90;99.90;;;;;;4994127;28;20415;-42
2023/12/18 05:48:39;;;;;;;3.63;1.75;;;20.90;99.90;;;;;;4990901;28;20117;-43
2023/12/18 05:51:05;;;;;;;3.38;1.70;;;20.90;99.90;;;;;;4993547;28;20157;-43
2023/12/18 05:53:31;;;;;;;7.28;2.03;;;20.90;99.90;;;;;;4993579;28;20061;-43
2023/12/18 05:55:57;;;;;;;5.28;1.60;;;20.80;99.90;;;;;;4993658;28;20027;-43
2023/12/18 05:58:23;;;;;;;4.53;2.33;;;20.80;99.90;;;;;;4993707;28;20038;-42
2023/12/18 06:00:49;;;;;;;2.65;1.48;;;20.80;99.90;;;;;;4992875;28;20215;-43
2023/12/18 06:03:14;;;;;;;7.97;2.17;;;20.90;99.90;;;;;;4993777;28;20081;-43
2023/12/18 06:05:40;;;;;;;4.32;1.73;;;20.80;99.90;;;;;;4991902;28;20034;-43
2023/12/18 06:08:06;;;;;;;3.00;1.95;;;20.90;99.90;;;;;;4993593;28;20038;-44
2023/12/18 06:10:32;;;;;;;5.07;1.90;;;20.80;99.90;;;;;;4992536;28;20030;-43
2023/12/18 06:12:57;;;;;;;4.47;1.77;;;20.80;99.90;;;;;;4993370;28;20030;-43
2023/12/18 06:15:23;;;;;;;4.25;1.63;;;20.80;99.90;;;;;;4993329;28;20125;-42
2023/12/18 06:17:49;;;;;;;3.53;1.52;;;20.80;99.90;;;;;;4993054;28;20022;-43
2023/12/18 06:20:15;;;;;;;2.00;1.40;;;20.80;99.90;;;;;;4993390;28;20463;-43
2023/12/18 06:22:40;;;;;;;4.03;1.23;;;20.80;99.90;;;;;;4992793;28;20466;-43
2023/12/18 06:25:07;;;;;;;3.60;1.80;;;20.70;99.90;;;;;;4993204;28;20034;-42
2023/12/18 06:27:33;;;;;;;5.45;1.88;;;20.70;99.90;;;;;;4992876;28;20027;-43
2023/12/18 06:29:58;;;;;;;4.93;2.05;;;20.70;99.90;;;;;;4980577;28;20109;-42
2023/12/18 06:32:24;;;;;;;2.45;1.40;;;20.70;99.90;;;;;;4991818;28;20430;-42
2023/12/18 06:34:50;;;;;;;5.07;1.38;;;20.70;99.90;;;;;;4992767;28;20061;-42
2023/12/18 06:37:16;;;;;;;4.38;1.55;;;20.70;99.90;;;;;;4991891;28;20018;-43
2023/12/18 06:39:42;;;;;;;4.85;1.73;;;20.70;99.90;;;;;;4993019;28;20030;-43
2023/12/18 06:42:08;;;;;;;5.22;1.80;;;20.70;99.90;;;;;;4992782;28;20402;-43
2023/12/18 06:44:34;;;;;;;4.57;1.85;;;20.70;99.90;;;;;;4993011;28;20038;-43
2023/12/18 06:47:00;;;;;;;5.90;1.85;;;20.60;99.90;;;;;;4991544;28;20033;-42
2023/12/18 06:49:26;;;;;;;5.30;1.75;;;20.60;99.90;;;;;;4991688;28;20113;-43
2023/12/18 06:51:52;;;;;;;6.50;1.63;;;20.60;99.90;;;;;;4987240;28;20031;-43
2023/12/18 06:54:17;;;;;;;8.52;2.10;;;20.70;99.90;;;;;;4980071;28;20023;-43
2023/12/18 06:56:43;;;;;;;5.75;2.58;;;20.60;99.90;;;;;;4975488;28;20058;-43
2023/12/18 06:59:09;;;;;;;6.63;2.03;;;20.60;99.90;;;;;;4978106;28;20034;-43
2023/12/18 07:01:35;;;;;;;4.05;1.58;;;20.60;99.90;;;;;;4980542;28;20518;-42
2023/12/18 07:04:02;;;;;;;6.35;2.20;;;20.60;99.90;;;;;;4978361;28;20043;-42
2023/12/18 07:06:29;;;;;;;4.65;2.03;;;20.60;99.90;;;;;;4976070;28;20038;-43
2023/12/18 07:08:54;;;;;;;6.45;2.00;;;20.60;99.90;;;;;;4974934;28;20027;-43
2023/12/18 07:11:20;;;;;;;10.45;1.88;;;20.60;99.90;;;;;;4979419;28;20018;-41
2023/12/18 07:13:46;;;;;;;7.50;1.75;;;20.60;99.90;;;;;;4976138;28;20022;-42
2023/12/18 07:16:22;;;;;;;7.07;1.95;;;20.60;99.90;;;;;;4975693;28;20052;-43
2023/12/18 07:18:48;;;;;;;7.32;1.77;;;20.60;99.90;;;;;;4977761;28;20085;-43
2023/12/18 07:21:14;;;;;;;4.32;1.92;;;20.60;99.90;;;;;;4980131;28;20022;-44
2023/12/18 07:23:40;;;;;;;4.75;2.10;;;20.50;99.90;;;;;;4989530;28;20141;-44
2023/12/18 07:26:08;;;;;;;9.02;2.75;;;20.60;99.90;;;;;;4974605;28;20054;-43
2023/12/18 07:28:34;;;;;;;5.75;2.47;;;20.60;99.90;;;;;;4980777;28;20069;-43
2023/12/18 07:31:00;;;;;;;5.85;2.55;;;20.50;99.90;;;;;;4983425;28;20023;-43
2023/12/18 07:33:26;;;;;;;3.30;1.95;;;20.50;99.90;;;;;;4972628;28;20476;-44
2023/12/18 07:35:52;;;;;;;8.20;2.33;;;20.50;99.90;;;;;;4973233;28;20034;-42
2023/12/18 07:38:18;;;;;;;12.90;2.15;;;20.50;99.90;;;;;;4978650;28;20038;-43
2023/12/18 07:40:44;;;;;;;11.05;1.80;;;20.50;99.90;;;;;;4979157;28;20031;-44
2023/12/18 07:43:09;;;;;;;3.13;2.05;;;20.50;99.90;;;;;;4984784;28;20034;-43
2023/12/18 07:45:35;;;;;;;5.25;1.88;;;20.50;99.90;;;;;;4990662;28;20076;-42
2023/12/18 07:48:01;;;;;;;7.05;1.92;;;20.50;99.90;;;;;;4992326;28;20034;-43
2023/12/18 07:50:27;;;;;;;5.43;2.40;;;20.50;99.90;;;;;;4990798;28;20061;-49
2023/12/18 07:52:52;;;;;;;5.32;2.72;;;20.50;99.90;;;;;;4981100;28;20030;-50
2023/12/18 07:55:18;;;;;;;7.40;2.22;;;20.60;99.90;;;;;;4992022;28;20027;-50
2023/12/18 07:57:44;;;;;;;8.02;3.42;;;20.60;99.90;;;;;;4988760;28;20038;-50
2023/12/18 08:00:10;;;;;;;4.22;1.85;;;20.60;99.90;;;;;;4991568;28;20023;-50
2023/12/18 08:02:36;;;;;;;4.38;2.50;;;20.60;99.90;;;;;;4977171;28;20506;-49
2023/12/18 08:05:02;;;;;;;4.80;2.08;;;20.60;99.90;;;;;;4975470;28;20085;-50
2023/12/18 08:07:27;;;;;;;6.32;2.92;;;20.60;99.90;;;;;;5001100;28;20050;-50
2023/12/18 08:09:53;;;;;;;5.50;2.28;;;20.70;99.90;;;;;;4979334;28;20078;-49
2023/12/18 08:12:19;;;;;;;5.85;2.30;;;20.70;99.90;;;;;;4987506;28;20054;-50
2023/12/18 08:14:45;;;;;;;5.05;2.60;;;20.70;99.90;;;;;;4976612;28;20034;-50
2023/12/18 08:17:15;;;;;;;10.30;2.08;;;20.70;99.90;;;;;;4986742;28;20401;-50
2023/12/18 08:19:48;;;;;;;4.57;2.38;;;20.80;99.90;;;;;;4985816;28;20019;-51
2023/12/18 08:22:14;;;;;;;7.63;2.30;;;20.80;99.90;;;;;;4977260;28;20126;-51
2023/12/18 08:24:41;;;;;;;6.88;2.75;;;20.80;99.90;;;;;;4993569;28;20494;-50
2023/12/18 08:27:07;;;;;;;9.32;3.35;;;20.90;99.90;;;;;;4985620;28;20034;-51
2023/12/18 08:29:33;;;;;;;9.20;3.05;;;20.90;99.90;;;;;;4991615;28;20030;-51
2023/12/18 08:31:59;;;;;;;10.48;2.60;;;20.90;99.90;;;;;;4987549;28;20108;-51
2023/12/18 08:34:24;;;;;;;6.10;2.38;;;21.00;99.90;;;;;;4990182;28;20049;-51
2023/12/18 08:36:50;;;;;;;7.20;2.25;;;21.00;99.90;;;;;;4995186;28;20030;-49
2023/12/18 08:39:16;;;;;;;6.88;2.80;;;21.10;99.90;;;;;;4995168;28;20030;-49
2023/12/18 08:41:46;;;;;;;11.50;3.03;;;21.10;99.90;;;;;;4979741;28;20046;-50
2023/12/18 08:44:11;;;;;;;7.32;2.25;;;21.10;99.90;;;;;;4984920;28;20036;-50
2023/12/18 08:46:38;;;;;;;11.23;2.47;;;21.20;99.90;;;;;;4988161;28;20097;-50
2023/12/18 08:49:04;;;;;;;8.63;2.42;;;21.20;99.90;;;;;;4994800;28;20597;-50
2023/12/18 08:51:30;;;;;;;8.02;2.45;;;21.20;99.90;;;;;;4994531;28;20054;-49
2023/12/18 08:53:56;;;;;;;11.13;3.30;;;21.20;99.90;;;;;;5001087;28;20455;-49
2023/12/18 08:56:22;;;;;;;5.05;1.92;;;21.30;99.90;;;;;;4981871;28;20023;-51
2023/12/18 08:58:49;;;;;;;3.90;1.95;;;21.30;99.90;;;;;;4984040;28;20483;-50
2023/12/18 09:01:15;;;;;;;5.13;2.83;;;21.40;99.90;;;;;;4980675;28;20052;-50
2023/12/18 09:03:41;;;;;;;8.38;2.45;;;21.40;99.90;;;;;;4984902;28;20469;-50
2023/12/18 09:06:07;;;;;;;3.67;2.38;;;21.40;99.90;;;;;;4991639;28;20030;-51
2023/12/18 09:08:39;;;;;;;9.77;2.28;;;21.50;99.90;;;;;;4992138;28;20033;-46
2023/12/18 09:11:06;;;;;;;7.65;2.45;;;21.50;99.90;;;;;;4987542;28;20449;-45
2023/12/18 09:13:36;;;;;;;6.00;2.58;;;21.60;99.90;;;;;;4994101;28;20053;-44
2023/12/18 09:16:03;;;;;;;4.35;2.25;;;21.60;99.90;;;;;;4977428;28;20030;-45
2023/12/18 09:18:32;;;;;;;8.00;2.55;;;21.60;99.90;;;;;;4993522;28;20038;-45
2023/12/18 09:20:57;;;;;;;10.13;2.25;;;21.70;99.90;;;;;;4993257;28;20026;-45
2023/12/18 09:23:23;;;;;;;9.73;2.95;;;21.70;99.90;;;;;;4993942;28;20018;-45
2023/12/18 09:25:49;;;;;;;9.52;2.25;;;21.70;99.90;;;;;;4985459;28;20455;-43
2023/12/18 09:28:15;;;;;;;6.78;2.40;;;21.80;99.90;;;;;;4989559;28;20054;-45
2023/12/18 09:30:42;;;;;;;4.25;2.17;;;21.80;99.90;;;;;;4982820;28;20027;-43
2023/12/18 09:33:08;;;;;;;8.20;2.22;;;21.80;99.90;;;;;;4992279;28;20022;-43
2023/12/18 09:35:34;;;;;;;4.65;2.63;;;21.80;99.90;;;;;;4976414;28;20042;-43
2023/12/18 09:38:00;;;;;;;3.38;2.10;;;21.90;99.90;;;;;;4991665;28;20137;-44
2023/12/18 09:40:25;;;;;;;7.75;2.13;;;22.00;99.90;;;;;;4993770;28;20034;-43
2023/12/18 09:42:55;;;;;;;4.40;1.90;;;22.00;99.90;;;;;;4993200;28;20485;-43
2023/12/18 09:45:25;;;;;;;7.25;2.65;;;22.00;99.90;;;;;;4988932;28;20053;-43
2023/12/18 09:47:52;;;;;;;7.50;2.90;;;22.00;99.90;;;;;;4990258;28;20046;-43
2023/12/18 09:50:18;;;;;;;5.18;3.03;;;22.10;99.90;;;;;;4989311;28;20101;-44
2023/12/18 09:53:06;;;;;;;8.48;2.30;;;22.10;99.90;;;;;;4991809;28;20054;-43
2023/12/18 09:55:32;;;;;;;4.18;2.13;;;22.20;99.90;;;;;;4978890;28;20070;-43
2023/12/18 09:58:00;;;;;;;6.07;2.05;;;22.20;99.90;;;;;;4992460;28;20502;-44
2023/12/18 10:00:27;;;;;;;3.22;1.85;;;22.30;99.90;;;;;;4999713;28;20487;-42
2023/12/18 10:02:55;;;;;;;5.85;2.65;;;22.30;99.90;;;;;;4989950;28;20034;-42
2023/12/18 10:05:21;;;;;;;2.78;1.90;;;22.30;99.90;;;;;;4981416;28;20031;-42
2023/12/18 10:07:48;;;;;;;6.00;3.15;;;22.40;99.90;;;;;;4992649;28;20406;-43
2023/12/18 10:10:15;;;;;;;8.43;3.03;;;22.40;99.90;;;;;;4983780;28;20023;-42
2023/12/18 10:12:41;;;;;;;6.65;2.63;;;22.40;99.90;;;;;;4976374;28;20034;-42
2023/12/18 10:15:09;;;;;;;10.25;3.03;;;22.50;99.90;;;;;;4981860;28;20030;-42
2023/12/18 10:17:37;;;;;;;9.10;3.30;;;22.50;99.90;;;;;;4992300;28;20026;-43
2023/12/18 10:20:03;;;;;;;5.28;2.65;;;22.60;99.90;;;;;;4992700;28;20057;-42
2023/12/18 10:22:29;;;;;;;6.15;2.65;;;22.60;99.90;;;;;;4990367;28;20026;-43
2023/12/18 10:25:04;;;;;;;7.25;2.40;;;22.60;99.90;;;;;;4992899;28;20395;-43
2023/12/18 10:27:33;;;;;;;6.15;2.42;;;22.70;99.90;;;;;;4984022;28;20022;-43
2023/12/18 10:30:00;;;;;;;5.45;2.05;;;22.80;99.90;;;;;;4986602;28;20085;-44
2023/12/18 10:32:27;;;;;;;9.25;2.90;;;22.80;99.90;;;;;;4992875;28;20060;-43
2023/12/18 10:34:55;;;;;;;6.72;2.28;;;22.90;99.90;;;;;;4992153;28;20030;-44
2023/12/18 10:37:25;;;;;;;6.63;2.60;;;23.00;99.90;;;;;;4992997;28;20031;-46
2023/12/18 10:39:53;;;;;;;6.43;3.05;;;23.00;99.90;;;;;;4992952;28;20114;-48
2023/12/18 10:42:31;;;;;;;11.13;3.22;;;23.00;99.90;;;;;;4992833;28;20018;-48
2023/12/18 10:44:59;;;;;;;4.95;2.28;;;23.10;99.90;;;;;;4992941;28;20515;-49
2023/12/18 10:47:30;;;;;;;5.35;2.55;;;23.20;99.90;;;;;;4992769;28;20463;-48
2023/12/18 10:50:00;;;;;;;10.05;3.15;;;23.20;99.90;;;;;;4988409;28;20030;-48
2023/12/18 10:52:29;;;;;;;5.97;2.70;;;23.20;99.90;;;;;;4991021;28;20029;-49
2023/12/18 10:55:01;;;;;;;6.30;2.38;;;23.30;99.90;;;;;;4992640;28;20026;-49
2023/12/18 10:57:28;;;;;;;7.63;2.67;;;23.40;99.90;;;;;;4982041;28;20030;-50
2023/12/18 10:59:57;;;;;;;6.30;2.30;;;23.40;99.90;;;;;;4992691;28;20022;-50
2023/12/18 11:02:24;;;;;;;4.30;2.30;;;23.40;99.90;;;;;;4992330;28;20050;-49
2023/12/18 11:04:53;;;;;;;7.25;2.92;;;23.50;99.90;;;;;;4992471;28;20038;-49
2023/12/18 11:07:19;;;;;;;4.88;2.85;;;23.50;99.90;;;;;;4992532;28;20092;-49
2023/12/18 11:09:46;;;;;;;6.95;2.25;;;23.60;99.90;;;;;;4981290;28;20026;-50
2023/12/18 11:12:15;;;;;;;5.90;2.25;;;23.60;99.90;;;;;;4987950;28;20027;-50
2023/12/18 11:14:59;;;;;;;8.07;2.22;;;23.60;99.90;;;;;;4975792;28;20033;-50
2023/12/18 11:17:36;;;;;;;5.88;1.77;;;23.70;99.90;;;;;;4986955;28;20049;-50
2023/12/18 11:20:20;;;;;;;;;;;23.70;99.90;;;;;;4992806;28;20038;-50
2023/12/18 11:22:47;;;;;;;8.68;2.38;;;23.80;99.90;;;;;;4991535;28;19917;-50
2023/12/18 11:25:13;;;;;;;6.03;2.17;;;23.80;99.90;;;;;;4986189;28;20022;-49
2023/12/18 11:27:42;;;;;;;6.15;2.20;;;23.90;99.90;;;;;;4976538;28;20546;-49
2023/12/18 11:30:32;;;;;;;6.38;2.30;;;23.80;99.90;;;;;;4990783;28;20026;-48
2023/12/18 11:33:02;;;;;;;7.45;1.85;;;23.90;99.90;;;;;;4984564;28;20577;-48
2023/12/18 11:35:31;;;;;;;5.97;2.05;;;23.90;99.90;;;;;;4990825;28;20057;-49
2023/12/18 11:38:13;;;;;;;7.07;2.33;;;24.00;99.90;;;;;;4987502;28;20109;-49
2023/12/18 11:40:43;;;;;;;5.97;2.75;;;24.00;99.90;;;;;;4987307;28;20074;-49
2023/12/18 11:43:10;;;;;;;4.78;2.35;;;24.00;99.90;;;;;;4985850;28;20085;-54
2023/12/18 11:45:44;;;;;;;5.38;2.17;;;24.00;99.90;;;;;;4991799;28;20092;-50
2023/12/18 11:48:17;;;;;;;5.68;2.42;;;24.10;99.90;;;;;;4982549;28;20059;-51
2023/12/18 11:50:43;;;;;;;8.65;2.38;;;24.10;99.90;;;;;;4981302;28;20058;-51
2023/12/18 11:53:41;;;;;;;6.03;2.13;;;24.10;99.90;;;;;;4987264;28;20057;-51
2023/12/18 11:56:09;;;;;;;3.63;2.33;;;24.20;99.90;;;;;;4981953;28;20100;-51
2023/12/18 11:58:37;;;;;;;36.63;25.33;;;24.20;99.90;;;;;;4990482;28;20022;-49
2023/12/18 12:01:03;;;;;;;92.55;56.35;;;24.20;99.90;;;;;;4981923;28;20046;-46
2023/12/18 12:03:30;;;;;;;100.22;62.20;;;24.30;99.90;;;;;;4994044;28;20031;-49
2023/12/18 12:05:58;;;;;;;74.03;44.97;;;24.30;99.90;;;;;;4973889;28;20038;-49
2023/12/18 12:08:24;;;;;;;69.35;46.00;;;24.30;99.90;;;;;;4985834;28;20470;-48
2023/12/18 12:10:53;;;;;;;85.65;46.10;;;24.40;99.90;;;;;;4987264;28;20038;-50
2023/12/18 12:13:23;;;;;;;61.42;41.90;;;24.40;99.90;;;;;;4989671;28;20022;-50
2023/12/18 12:15:57;;;;;;;59.58;40.50;;;24.50;99.90;;;;;;4983677;28;20093;-50
2023/12/18 12:18:28;;;;;;;59.97;39.20;;;24.50;99.90;;;;;;4979244;28;20019;-50
2023/12/18 12:20:54;;;;;;;65.82;39.22;;;24.50;99.90;;;;;;4992178;28;20403;-48
2023/12/18 12:23:20;;;;;;;58.90;38.42;;;24.50;99.90;;;;;;4993130;28;20034;-47
2023/12/18 12:25:48;;;;;;;54.28;36.70;;;24.50;99.90;;;;;;4990095;28;20073;-47
2023/12/18 12:28:15;;;;;;;52.53;33.75;;;24.60;99.90;;;;;;4992972;28;20520;-47
2023/12/18 12:30:44;;;;;;;58.47;35.78;;;24.60;99.90;;;;;;4992968;28;20109;-46
2023/12/18 12:33:13;;;;;;;55.42;34.13;;;24.60;99.90;;;;;;4989698;28;20454;-47
2023/12/18 12:35:42;;;;;;;52.60;32.17;;;24.70;99.90;;;;;;4993360;28;20037;-46
2023/12/18 12:38:08;;;;;;;47.88;32.92;;;24.70;99.90;;;;;;4980893;28;20019;-47
2023/12/18 12:40:44;;;;;;;48.10;30.85;;;24.70;99.90;;;;;;4983591;28;20538;-47
2023/12/18 12:43:10;;;;;;;45.17;29.88;;;24.70;99.90;;;;;;4978147;28;20074;-48